Sierra Vista Municipal Libby Army Air Field
KFHU : rendu visible

Aérodrome :











RETROUVEZ-NOUS SUR...

 
LOGIN :

S'inscrire | Disclaimer

   EN    FR    IT 

 









Légende :    VFR   VFR Marginal   IFR   IFR Intensif   IFR Très Intensif
Visi : 
Plafond : 
>= 8 km
>= 3000ft
5 à 8 km
1000 à 3000 ft
1500m à 5 km
500 à 1000 ft
800 à 1500m
200 à 500 ft
< 800m
< 200 ft
Symboles :   Orages  Brouillard  Fortes neiges  Fortes précipitations  Vent > 20 kt






- Altitude de l'aérodrome : 4719 ft
- Code IATA : FHU


KFHU - Sierra Vista Municipal Libby Army Air Field

DERNIER METAR :
  • 192058Z AUTO 23012G16KT 10SM SCT230 22/M08 A3007 RMK AO2 SLP132 T02211084 57020

METARs EXPIRÉS :
  • 192019Z AUTO 24010G16KT 10SM FEW170 BKN220 22/M09 A3008 RMK AO2 SLP132
  • 191958Z AUTO 27009G18KT 10SM FEW170 SCT220 SCT250 21/M07 A3010 RMK AO2 SLP142 T02081074
  • 191936Z AUTO 24007KT 10SM CLR 21/M06 A3010 RMK AO2 SLP142
  • 191858Z AUTO 34003KT 10SM CLR 19/M06 A3012 RMK AO2 SLP153 T01891056

TAF TAF KFHU
Valide du 19 à 18h jusqu'au 21 à 00h UTC


191805Z 1918/2024 22012KT 9999 BKN150 QNH3014INS
BECMG 2002/2003 VRB06KT 9999 SKC QNH3011INS
BECMG 2017/2018 17012KT 9999 SKC QNH3018INS TX23/1922Z TN03/2012Z



MET'MAP, la Météo Aéronautique d'un coup d'oeil ! - Copyright ORBIFLY Décembre 2007 - Disclaimer

ORBIFLY MET'MAP TEAM :

Programmation & Développement : Alexandra Zaïnal
Sur une idée originale de : Baudouin d'Aumeries
Assistance à la programmation : Marc-Olivier Méhu
Soutien technique & logistique : Manuel Goepfert

Contact : metmap@orbifly.com




SOURCES & CREDITS :

   NOAA       Earth
Advisory